Estación Meteorológica Peña el Pijo (Robertgarden) [ 12/10/18 12:05:24 CET ]

Fecha Hora Presion(HPa) Temp (°C) Humedad % Rocio (°C) Viento ( m/s) Direccion Lluvia 1Hora(mm) Lluvia 24H(mm) LLuvia Total(mm)
2018-Jun-19 01:01:48 1013.800 16.8 63 9.7         266.25
2018-Jun-19 02:01:54 1013.700 14.7 68 8.8         266.25
2018-Jun-19 03:01:40 1013.700 13.3 72 8.3         266.25
2018-Jun-19 04:03:10 1013.700 12.3 76 8.2         266.25
2018-Jun-19 05:01:53 1013.800 11.3 78 7.6         266.25
2018-Jun-19 06:01:47 1014.100 10.5 81 7.4         266.25
2018-Jun-19 07:01:53 1014.300 10.1 82 7.1         266.25
2018-Jun-19 08:01:59 1014.000 13.1 85 10.6         266.25
2018-Jun-19 09:01:56 1014.200 19.4 68 13.3         266.25
2018-Jun-19 10:01:53 1014.100 25.4 42 11.5         266.25
2018-Jun-19 11:01:47 1014.000 27.3 32 9.1         266.25
2018-Jun-19 12:01:51 1013.900 28.4 33 10.5         266.25
2018-Jun-19 13:02:02 1013.900 27.9 33 10.0         266.25
2018-Jun-19 14:01:59 1013.400 29.5 30 10.1 1.6 SSW     266.25
2018-Jun-19 15:02:05 1013.000 30.1 30 10.7 1.4 S     266.25
2018-Jun-19 16:01:33 1012.700 31.7 28 10.8         266.25
2018-Jun-19 17:01:37 1012.300 30.6 29 10.5         266.25
2018-Jun-19 18:01:59 1012.200 28.8 33 10.8 0.7 SW     266.25
2018-Jun-19 19:01:51 1012.100 27.3 37 11.3         266.25
2018-Jun-19 20:01:52 1012.400 25.0 42 11.2 0.4 SSW     266.25
2018-Jun-19 21:01:41 1012.700 21.9 49 10.7 1.6 SSW     266.25
2018-Jun-19 22:01:51 1012.800 19.9 54 10.3         266.25
2018-Jun-19 23:02:04 1013.400 18.8 58 10.4         266.25

Temperatura Máxima:31°    Temperatura Mínima:10°
Presión Máxima:1014.300 Hpa    Presión Mínima:1012.100 Hpa


Volver